Terminal Aerodrome Forecast
Issued by NWS

Home | Current Version | Previous Version | Text Only | Print | Product List | Glossary On
Versions: 1 2 3 4 5 6 7 8 9 10 11 12
000
FTUS45 KRIW 240500
TAFLND
TAF
KLND 240530Z 2406/2506 23007KT P6SM SCT250
     FM241400 VRB05KT P6SM SCT120 BKN250
     FM242200 VRB05KT P6SM BKN120
     FM250200 24006KT P6SM SCT120 BKN250=

USA.gov is the U.S. government's official web portal to all federal, state and local government web resources and services.